Current Weather

Miami-Opa Locka Exec

Miami, Florida (KOPF)

Report from: Monday, August 15, 2022 7:53 PM EDT
Current time: Monday, August 15, 2022 8:28 PM EDT

Nearby weather
Weather history
Weather forecast

Temperature26.1°C (79.0°F)
Dew point23.9°C (75.0°F)
Winds 5 kts (2.6 m/s, 5.8 mph) South-Southwest (210°)
Visibility10 mi. (16.1 km)
Clouds Sky clear
Altimeter29.91 in.Hg (1013 mB)
Precipitiation0.15 in. (4 mm)
Precip. events Rain began 7:15 PM
Rain ended 7:19 PM
Precip last 3 hours1.18 in. (30 mm)
Relative humidity88 %
Density altitude1,692 ft. (516 m)
Sea-level pressure101.3 kPa (1013 mB, 29.91 in.Hg)
Max temp last 6 hours33.3°C (91.9°F)
Min temp last 6 hours23.3°C (73.9°F)
Remarks System requires maintenance
Automated weather observing station with precipitation discriminator
Pressure falling more slowly
Flight conditions Visual Meteorological Conditions
Raw dataKOPF 152353Z 21005KT 10SM CLR 26/24 A2991 RMK AO2 RAB15E19 SLP130 P0015 60118 T02610239 10333 20233 56010 $
An error has occurred. This application may no longer respond until reloaded. Reload 🗙